Station BUFN6 - 9063020 - Buffalo, NY Image indicating link to RSS feed of recent meteorological observations for station BUFN6


Conditions at BUFN6 as of
(10:18 am EDT)
1418 GMT on 09/02/2026:
     

Click on the graph icon in the table below to see a time series plot of the last five days of that observation.

5-day plot - Wind Direction Wind Direction (WDIR): S ( 180 deg true )
5-day plot - Wind Speed Wind Speed (WSPD): 8.0 kts
5-day plot - Wind Gust Wind Gust (GST): 9.9 kts
5-day plot - Atmospheric Pressure Atmospheric Pressure (PRES):30.00 in
5-day plot - Water Temperature Water Temperature (WTMP): 73.8 °F
5-day plot - Wind Speed at 10 Meters Wind Speed at 10 meters (WSPD10M): 7.8 kts
5-day plot - Wind Speed at 20 Meters Wind Speed at 20 meters (WSPD20M): 9.7 kts
5-day plot -  Wind Speed, Wind Gust and Atmospheric Pressure Combined plot of Wind Speed, Gust, and Air Pressure
NOS Water Level Observation Network Water Level
Previous observations
TIME
(EDT)
5-day plot - Wind Direction
WDIR
 
5-day plot - Wind Speed
WSPD
kts
5-day plot - Wind Gust
GST
kts
5-day plot - Wave Height
WVHT
ft
5-day plot - Dominant Wave Period
DPD
sec
5-day plot - Average Wave Period
APD
sec
5-day plot - Mean Wave Direction
MWD
 
5-day plot - Atmospheric Pressure
PRES
in
5-day plot - Pressure Tendency
PTDY
in
5-day plot - Air Temperature
ATMP
°F
5-day plot - Water Temperature
WTMP
°F
5-day plot - Dew Point
DEWP
°F
5-day plot - Salinity
SAL
psu
5-day plot - Visibility
VIS
nmi
5-day plot - Tide (above MLLW)
TIDE
ft
2026-09-02 10:12 am S 8.0 13.0----30.00-- 73.8----
2026-09-02 10:06 amSSW 9.9 13.0----30.00-- 73.8----
2026-09-02 10:00 am SW 9.9 17.1----30.00+0.06- 73.8----
2026-09-02 09:54 amSSW 14.0 18.1----30.00-- 73.8----
2026-09-02 09:48 amSSW 9.9 15.9----30.00- 74.5 73.6 70.7---
2026-09-02 09:42 amSSW 12.0 15.0----30.00- 74.5 73.8 70.7---
2026-09-02 09:36 amSSW 12.0 15.0----30.00- 74.7 73.6 70.7---
2026-09-02 09:30 amSSW 8.9 11.1----30.00- 74.5 73.8 70.5---
2026-09-02 09:24 am S 8.0 15.0----30.00- 74.7 73.6 70.3---
2026-09-02 09:18 amSSW 8.9 14.0----30.00-- 73.6----
2026-09-02 09:12 am S 6.0 7.0----30.00-- 73.6----
2026-09-02 09:06 am SW 2.9 5.1----30.00-- 73.8----
2026-09-02 09:00 am W 1.9 5.1----30.00+0.08 74.8 73.8 70.0---
2026-09-02 08:54 amNNW 2.9 5.1----30.01- 74.8 73.8 69.1---
2026-09-02 08:48 am N 4.1 7.0----30.01- 74.7 73.8 69.3---
2026-09-02 08:42 am N 5.1 9.9----30.01- 73.9 73.6 69.4---
2026-09-02 08:36 am NW 8.0 9.9----30.01- 73.8 73.6 69.8---
2026-09-02 08:30 amWSW 8.9 14.0----30.00- 74.1 73.6 69.6---
2026-09-02 08:24 amWSW 13.0 15.0----29.99- 74.5 73.6 69.1---
2026-09-02 08:18 am SW 8.0 13.0----29.98-- 73.4----
2026-09-02 08:12 amSSW 11.1 15.0----29.96-- 73.4----
2026-09-02 08:06 amSSW 15.0 18.1----29.95-- 73.6----
2026-09-02 08:00 amSSW 18.1 20.0----29.94+0.00 75.0 73.6 70.9---
2026-09-02 07:54 amSSW 17.1 21.0----29.94- 75.0 73.6 70.7---
2026-09-02 07:48 amSSW 15.9 20.0----29.94-- 73.4----
2026-09-02 07:42 amSSW 11.1 13.0----29.96-- 73.4----
2026-09-02 07:36 amSSW 9.9 12.0----29.96-- 73.4----
2026-09-02 07:30 am S 8.0 9.9----29.94- 74.5 73.4 70.5---
2026-09-02 07:24 am S 8.0 11.1----29.95- 74.5 73.4 70.3---
2026-09-02 07:18 am S 8.9 11.1----29.95-- 73.4----
2026-09-02 07:12 am S 8.9 11.1----29.95-- 73.6----
2026-09-02 07:06 am S 8.0 8.9----29.95-- 73.4----
2026-09-02 07:00 am S 8.0 9.9----29.94-0.03 74.5 73.4 70.5---
2026-09-02 06:54 am S 6.0 9.9----29.93- 74.3 73.4 70.5---
2026-09-02 06:48 am S 8.0 9.9----29.93- 74.1 73.4 70.3---
2026-09-02 06:42 am S 8.0 8.9----29.93- 74.3 73.4 70.5---
2026-09-02 06:36 am S 6.0 8.0----29.93- 74.1 73.4 70.7---
2026-09-02 06:30 am S 8.0 8.0----29.93- 74.1 73.6 70.9---
2026-09-02 06:24 am S 7.0 8.9----29.93- 74.3 73.4 70.9---
2026-09-02 06:18 am S 8.0 8.9----29.93-- 73.4----
2026-09-02 06:12 am S 8.0 8.9----29.94-- 73.4----
2026-09-02 06:06 amSSE 4.1 7.0----29.93-- 73.4----
2026-09-02 06:00 amSSE 5.1 7.0----29.93-0.04 74.1 73.4 70.9---
2026-09-02 05:54 amSSE 5.1 8.0----29.93- 74.3 73.4 71.2---
2026-09-02 05:48 am S 6.0 8.0----29.93- 74.3 73.4 71.2---
2026-09-02 05:42 am S 5.1 7.0----29.93- 74.3 73.6 71.1---
2026-09-02 05:36 amSSE 5.1 8.0----29.94- 74.3 73.6 71.1---
2026-09-02 05:30 amSSE 5.1 8.0----29.94- 74.5 73.4 71.1---
2026-09-02 05:24 amSSE 5.1 7.0----29.94- 74.5 73.4 71.1---
2026-09-02 05:18 amSSE 4.1 8.0----29.94-- 73.4----
2026-09-02 05:12 amSSE 6.0 8.0----29.95-- 73.4----
2026-09-02 05:06 am S 6.0 8.0----29.95-- 73.4----
2026-09-02 05:00 amSSE 5.1 8.0----29.95-0.03 74.5 73.4 71.6---
2026-09-02 04:54 am S 7.0 8.0----29.95- 74.5 73.4 71.6---
2026-09-02 04:48 amSSE 5.1 7.0----29.95- 74.7 73.4 71.4---
2026-09-02 04:42 amSSE 5.1 7.0----29.95- 74.7 73.4 71.4---
2026-09-02 04:36 amSSE 5.1 7.0----29.96- 74.7 73.4 71.4---
2026-09-02 04:30 amSSE 5.1 7.0----29.96- 74.7 73.4 71.6---
2026-09-02 04:24 amSSE 4.1 6.0----29.96- 74.7 73.2 71.6---
2026-09-02 04:18 amSSE 4.1 7.0----29.96- 75.0 73.2 71.6---
2026-09-02 04:12 amSSE 5.1 6.0----29.96- 75.0 73.2 71.6---
2026-09-02 04:06 amSSE 5.1 7.0----29.97- 74.8 73.2 71.6---
2026-09-02 04:00 am SE 5.1 5.1----29.97+0.00 74.7 73.2 71.4---
2026-09-02 03:54 am SE 5.1 6.0----29.97- 74.8 73.4 71.2---
2026-09-02 03:48 am SE 5.1 6.0----29.97-- 73.4----
2026-09-02 03:42 am SE 5.1 6.0----29.97-- 73.4----
2026-09-02 03:36 amSSE 5.1 7.0----29.97-- 73.4----
2026-09-02 03:30 am SE 5.1 7.0----29.97- 74.8 73.4 71.4---
2026-09-02 03:24 am SE 5.1 7.0----29.97- 74.8 73.4 71.4---
2026-09-02 03:18 amSSE 5.1 6.0----29.97-- 73.4----
2026-09-02 03:12 am SE 5.1 7.0----29.97-- 73.4----
2026-09-02 03:06 am SE 5.1 7.0----29.97-- 73.4----
2026-09-02 03:00 am SE 5.1 7.0----29.97+0.00 74.7 73.4 71.2---
2026-09-02 02:54 am SE 6.0 7.0----29.97- 74.7 73.4 71.2---
2026-09-02 02:48 am SE 5.1 7.0----29.97- 74.5 73.4 71.2---
2026-09-02 02:42 amSSE 5.1 6.0----29.98- 74.5 73.4 71.2---
2026-09-02 02:36 am SE 5.1 7.0----29.97- 74.5 73.2 71.2---
2026-09-02 02:30 amSSE 6.0 8.0----29.97- 74.7 73.2 71.1---
2026-09-02 02:24 am SE 5.1 8.0----29.97- 74.5 73.2 71.2---
2026-09-02 02:18 am SE 4.1 5.1----29.97-- 73.4----
2026-09-02 02:12 am SE 4.1 6.0----29.97-- 73.4----
2026-09-02 02:06 am SE 4.1 6.0----29.97-- 73.4----
2026-09-02 02:00 am SE 5.1 6.0----29.98+0.01 74.7 73.2 71.2---
2026-09-02 01:54 am SE 4.1 5.1----29.98- 74.5 73.4 71.1---
2026-09-02 01:48 am SE 4.1 5.1----29.97- 74.5 73.4 70.9---
2026-09-02 01:42 am SE 4.1 5.1----29.98- 74.7 73.4 71.1---
2026-09-02 01:36 am SE 4.1 5.1----29.98- 74.7 73.4 70.9---
2026-09-02 01:30 am SE 2.9 5.1----29.98- 74.8 73.4 71.1---
2026-09-02 01:24 am SE 2.9 4.1----29.98- 74.8 73.4 70.9---
2026-09-02 01:18 amESE 1.9 4.1----29.97-- 73.4----
2026-09-02 01:12 amESE 2.9 5.1----29.97-- 73.4----
2026-09-02 01:06 amESE 2.9 4.1----29.97-- 73.4----
2026-09-02 01:00 amESE 2.9 5.1----29.97+0.00 75.4 73.4 70.5---
2026-09-02 12:54 amESE 4.1 5.1----29.97- 75.4 73.4 70.5---
2026-09-02 12:48 amESE 4.1 5.1----29.97- 75.6 73.4 70.5---
2026-09-02 12:42 amESE 2.9 4.1----29.97- 75.6 73.2 70.5---
2026-09-02 12:36 amESE 2.9 5.1----29.97- 75.6 73.2 70.3---
2026-09-02 12:30 amESE 2.9 5.1----29.97- 75.6 73.2 70.5---
2026-09-02 12:24 am SE 2.9 4.1----29.97- 75.7 73.2 70.5---
2026-09-02 12:18 amESE 1.9 4.1----29.97-- 73.2----
2026-09-02 12:12 amESE 1.9 5.1----29.97-- 73.2----
2026-09-02 12:06 am E 2.9 4.1----29.97-- 73.0----
2026-09-02 12:00 am E 2.9 2.9----29.97+0.00 75.6 73.0 70.5---
2026-09-01 11:54 pm E 2.9 2.9----29.97- 75.7 73.0 70.3---
2026-09-01 11:48 pmESE 1.9 4.1----29.96-- 73.0----
2026-09-01 11:42 pmESE 2.9 4.1----29.96-- 73.0----
2026-09-01 11:36 pmESE 1.9 4.1----29.96-- 73.0----
2026-09-01 11:30 pmESE 2.9 4.1----29.96- 76.3 73.0 70.2---
2026-09-01 11:24 pmESE 2.9 5.1----29.96- 76.5 73.0 70.3---
2026-09-01 11:18 pmESE 2.9 5.1----29.96-- 73.2----
2026-09-01 11:12 pmESE 4.1 5.1----29.96-- 73.2----
2026-09-01 11:06 pmESE 2.9 4.1----29.96-- 73.2----
2026-09-01 11:00 pmESE 1.9 1.9----29.96+0.02 75.2 73.2 71.4---
2026-09-01 10:54 pm SE 1.9 1.9----29.96- 75.0 73.2 71.4---
2026-09-01 10:48 pm SE 1.0 1.9----29.96- 75.2 73.2 71.6---
2026-09-01 10:42 pm SE 1.9 1.9----29.96- 75.2 73.2 71.6---
2026-09-01 10:36 pmESE 1.0 1.9----29.96- 75.0 73.2 71.6---
2026-09-01 10:30 pm SE 1.9 2.9----29.96- 75.2 73.2 71.8---
2026-09-01 10:24 pm SE 1.9 2.9----29.96- 75.0 73.2 72.0---
2026-09-01 10:18 pm SE 2.9 4.1----29.96-- 73.2----
2026-09-01 10:12 pmESE 1.9 2.9----29.96-- 73.2----
2026-09-01 10:06 pm SE 1.0 1.9----29.96-- 73.0----
2026-09-01 10:00 pm- 0.0 1.9----29.97+0.01 74.8 73.0 72.3---
2026-09-01 09:54 pm SE 1.9 2.9----29.96- 74.8 73.0 72.5---
2026-09-01 09:48 pm SE 1.9 2.9----29.96- 74.8 73.0 72.7---
2026-09-01 09:42 pmSSE 1.9 4.1----29.96- 74.8 73.2 72.7---
2026-09-01 09:36 pm S 4.1 5.1----29.97- 74.8 73.2 72.7---
2026-09-01 09:30 pm S 4.1 5.1----29.97- 74.8 73.2 72.7---
2026-09-01 09:24 pm S 4.1 5.1----29.97- 74.8 73.2 72.7---
2026-09-01 09:18 pmSSE 4.1 5.1----29.96- 74.8 73.2 72.9---
2026-09-01 09:12 pmSSE 2.9 5.1----29.96- 74.7 73.2 72.9---
2026-09-01 09:06 pmSSE 4.1 5.1----29.96- 74.7 73.2 73.0---
2026-09-01 09:00 pmSSE 4.1 4.1----29.96+0.00- 73.2----
2026-09-01 08:54 pmSSE 2.9 5.1----29.96-- 73.2----
2026-09-01 08:48 pm S 5.1 6.0----29.95- 74.7 73.2 72.9---
2026-09-01 08:42 pmSSE 2.9 5.1----29.95- 74.7 73.2 73.0---
2026-09-01 08:36 pmSSE 4.1 5.1----29.95- 74.7 73.2 73.0---
2026-09-01 08:30 pmSSE 4.1 6.0----29.95- 74.5 73.2 73.0---
2026-09-01 08:24 pmSSE 4.1 5.1----29.95- 74.5 73.0 73.2---
2026-09-01 08:18 pmSSE 4.1 4.1----29.95-- 73.0----
2026-09-01 08:12 pmSSE 2.9 5.1----29.94-- 73.2----
2026-09-01 08:06 pmSSE 4.1 5.1----29.94-- 73.4----
2026-09-01 08:00 pmSSE 4.1 4.1----29.94-0.01 74.5 73.2 73.0---
2026-09-01 07:54 pmSSE 2.9 4.1----29.95- 74.5 73.2 73.0---
2026-09-01 07:48 pmSSE 2.9 4.1----29.94-- 73.2----
2026-09-01 07:42 pmSSE 4.1 5.1----29.94-- 73.2----
2026-09-01 07:36 pm S 4.1 5.1----29.94-- 73.2----
2026-09-01 07:30 pmSSE 2.9 4.1----29.95- 74.8 73.0 73.2---
2026-09-01 07:24 pmSSE 2.9 4.1----29.95- 74.8 73.2 73.2---
2026-09-01 07:18 pmSSE 2.9 2.9----29.95-- 73.2----
2026-09-01 07:12 pmSSE 2.9 2.9----29.95-- 73.2----
2026-09-01 07:06 pmSSE 2.9 2.9----29.95-- 73.2----
2026-09-01 07:00 pmSSE 2.9 2.9----29.96-0.01 75.0 73.2 73.0---
2026-09-01 06:54 pm S 2.9 5.1----29.96- 75.0 73.2 73.0---
2026-09-01 06:48 pm S 4.1 5.1----29.95- 75.0 73.2 72.9---
2026-09-01 06:42 pm S 4.1 4.1----29.95- 75.2 73.2 73.0---
2026-09-01 06:36 pm S 2.9 5.1----29.96- 75.0 73.2 72.9---
2026-09-01 06:30 pm S 4.1 5.1----29.96- 75.4 73.2 73.0---
2026-09-01 06:24 pm S 2.9 4.1----29.96- 75.6 73.2 72.9---
2026-09-01 06:18 pm S 1.9 2.9----29.96-- 73.2----
2026-09-01 06:12 pm- 0.0 1.9----29.96-- 73.2----
2026-09-01 06:06 pm- 0.0 1.9----29.96-- 73.2----
2026-09-01 06:00 pm SW 1.0 1.9----29.96-0.01 77.4 73.2 72.9---
2026-09-01 05:54 pm SW 1.0 1.9----29.96- 77.4 73.4 73.0---
2026-09-01 05:48 pm SW 1.0 2.9----29.96- 76.3 73.2 73.2---
2026-09-01 05:42 pmSSW 2.9 5.1----29.96- 75.4 73.2 73.2---
2026-09-01 05:36 pmSSW 4.1 5.1----29.95- 75.2 73.2 73.0---
2026-09-01 05:30 pmSSW 4.1 5.1----29.96- 75.0 73.2 73.0---
2026-09-01 05:24 pm S 4.1 5.1----29.96- 75.0 73.2 73.0---
2026-09-01 05:18 pmSSW 5.1 5.1----29.96-- 73.2----
2026-09-01 05:12 pmSSW 4.1 6.0----29.96-- 73.2----
2026-09-01 05:06 pmSSW 5.1 6.0----29.96-- 73.2----
2026-09-01 05:00 pm S 5.1 6.0----29.95-0.01 75.4 73.2 73.2---
2026-09-01 04:54 pm S 5.1 6.0----29.95- 75.4 73.4 73.0---
2026-09-01 04:48 pm S 4.1 6.0----29.96- 75.4 73.4 73.2---
2026-09-01 04:42 pm S 5.1 6.0----29.95- 75.2 73.4 73.2---
2026-09-01 04:36 pm S 5.1 6.0----29.96- 75.2 73.4 73.0---
2026-09-01 04:30 pm S 5.1 6.0----29.96- 75.2 73.4 73.0---
2026-09-01 04:24 pmSSW 5.1 5.1----29.96- 75.0 73.4 73.0---
2026-09-01 04:18 pmSSW 4.1 5.1----29.96-- 73.4----
2026-09-01 04:12 pmSSW 2.9 4.1----29.96-- 73.4----
2026-09-01 04:06 pmSSW 2.9 4.1----29.97-- 73.4----
2026-09-01 04:00 pmSSW 1.9 4.1----29.96+0.02 76.6 73.4 73.0---
2026-09-01 03:54 pm SW 2.9 4.1----29.96- 76.5 73.4 72.9---
2026-09-01 03:48 pmSSW 2.9 5.1----29.96- 76.1 73.2 72.5---
2026-09-01 03:42 pm SW 1.9 5.1----29.96- 76.8 73.4 72.9---
2026-09-01 03:36 pm SW 4.1 7.0----29.96- 75.4 73.4 72.9---
2026-09-01 03:30 pm SW 5.1 6.0----29.96- 75.4 73.4 72.7---
2026-09-01 03:24 pmSSW 5.1 7.0----29.96- 75.2 73.4 72.7---
2026-09-01 03:18 pmSSW 5.1 8.0----29.96-- 73.4----
2026-09-01 03:12 pmSSW 5.1 8.0----29.96-- 73.4----
2026-09-01 03:06 pmSSW 5.1 8.9----29.96-- 73.2----
2026-09-01 03:00 pmSSW 7.0 9.9----29.96+0.02 75.0 73.2 72.7---
2026-09-01 02:54 pmSSW 8.0 9.9----29.96- 74.8 73.4 72.9---
2026-09-01 02:48 pmSSW 8.9 9.9----29.96- 74.8 73.4 72.7---
2026-09-01 02:42 pmSSW 8.0 8.9----29.96- 74.8 73.4 72.7---
2026-09-01 02:36 pmSSW 7.0 8.9----29.97- 75.0 73.4 72.7---
2026-09-01 02:30 pmSSW 5.1 7.0----29.97- 75.2 73.6 72.7---
2026-09-01 02:24 pm SW 5.1 8.0----29.97- 75.7 73.6 72.5---
2026-09-01 02:18 pm SW 5.1 8.0----29.97-- 73.6----
2026-09-01 02:12 pm SW 5.1 8.0----29.97-- 73.6----
2026-09-01 02:06 pm SW 5.1 8.0----29.96-- 73.6----
2026-09-01 02:00 pm SW 5.1 8.9----29.96+0.02 75.7 73.4----
2026-09-01 01:54 pm SW 8.0 9.9----29.96- 75.2 73.2----
2026-09-01 01:48 pm SW 8.0 9.9----29.96- 75.0 73.2 72.3---
2026-09-01 01:42 pm SW 7.0 11.1----29.96- 75.2 73.4 72.5---
2026-09-01 01:36 pm SW 9.9 11.1----29.96- 75.2 73.2 72.3---
2026-09-01 01:30 pm SW 8.0 9.9----29.95- 75.4 73.4 72.5---
2026-09-01 01:24 pm SW 8.9 9.9----29.95- 75.0 73.4 72.3---
2026-09-01 01:18 pm SW 8.0 9.9----29.95-- 73.2----
2026-09-01 01:12 pm SW 7.0 9.9----29.95-- 73.0----
2026-09-01 01:06 pm SW 7.0 9.9----29.94-- 73.0----
2026-09-01 01:00 pm SW 7.0 9.9----29.94+0.00 75.2 73.0 72.5---
2026-09-01 12:54 pm SW 8.0 11.1----29.95- 75.0 73.0 72.1---
2026-09-01 12:48 pm SW 8.0 9.9----29.95-- 73.0----
2026-09-01 12:42 pm SW 6.0 9.9----29.95-- 73.0----
2026-09-01 12:36 pm SW 8.9 11.1----29.95-- 73.2----
2026-09-01 12:30 pm SW 8.9 11.1----29.95- 74.8 73.0 72.1---
2026-09-01 12:24 pm SW 8.9 12.0----29.95- 74.7 73.0 72.1---
2026-09-01 12:18 pm SW 9.9 13.0----29.95-- 73.0----
2026-09-01 12:12 pm SW 9.9 13.0----29.95-- 73.2----
2026-09-01 12:06 pm SW 9.9 12.0----29.95-- 73.0----
2026-09-01 12:00 pm SW 8.9 12.0----29.95+0.00 74.7 73.0 72.1---
2026-09-01 11:54 am SW 8.9 12.0----29.95- 74.7 73.0 72.1---
2026-09-01 11:48 am SW 9.9 12.0----29.95- 74.7 73.0 72.1---
2026-09-01 11:42 am SW 9.9 12.0----29.94- 74.7 73.0 72.1---
2026-09-01 11:36 amWSW 9.9 12.0----29.94- 74.7 73.0 72.1---
2026-09-01 11:30 amWSW 9.9 12.0----29.94- 74.7 72.9 72.1---
2026-09-01 11:24 amWSW 9.9 12.0----29.94- 74.7 72.9 72.1---
2026-09-01 11:18 amWSW 11.1 12.0----29.94-- 72.9----
2026-09-01 11:12 am SW 8.9 13.0----29.94-- 72.9----
2026-09-01 11:06 am SW 7.0 12.0----29.94-- 72.9----
2026-09-01 11:00 am SW 8.9 12.0----29.94+0.00 74.7 72.9 72.1---
2026-09-01 10:54 am SW 8.0 11.1----29.94- 74.7 72.9 72.1---
2026-09-01 10:48 am SW 7.0 12.0----29.94-- 72.9----
2026-09-01 10:42 am SW 6.0 9.9----29.93-- 72.9----
2026-09-01 10:36 am SW 7.0 11.1----29.93-- 72.9----
2026-09-01 10:30 am SW 7.0 9.9----29.93- 74.7 72.9 72.1---
2026-09-01 10:24 am SW 7.0 11.1----29.94- 74.7 72.9 72.1---
2026-09-01 10:18 am SW 6.0 11.1----29.94-- 72.9----
2026-09-01 10:12 am SW 8.0 11.1----29.94-- 72.9----
2026-09-01 10:06 am SW 7.0 11.1----29.94-- 72.9----
2026-09-01 10:00 am SW 7.0 11.1----29.94+0.01 74.1 72.9 72.1---
2026-09-01 09:54 am SW 7.0 11.1----29.94- 74.1 72.9 72.1---